sensor_id;sensor_type;location;lat;lon;timestamp;P1;durP1;ratioP1;P2;durP2;ratioP2
80961;SDS011;70424;55.154;14.722;2024-02-23T00:00:53;18.75;;;12.75;;
80961;SDS011;70424;55.154;14.722;2024-02-23T00:03:19;17.10;;;12.57;;
80961;SDS011;70424;55.154;14.722;2024-02-23T00:05:45;16.75;;;11.48;;
80961;SDS011;70424;55.154;14.722;2024-02-23T00:08:10;20.23;;;13.07;;
80961;SDS011;70424;55.154;14.722;2024-02-23T00:10:36;18.77;;;13.05;;
80961;SDS011;70424;55.154;14.722;2024-02-23T00:13:01;17.80;;;12.95;;
80961;SDS011;70424;55.154;14.722;2024-02-23T00:15:27;18.55;;;12.85;;
80961;SDS011;70424;55.154;14.722;2024-02-23T00:17:52;18.95;;;12.75;;
80961;SDS011;70424;55.154;14.722;2024-02-23T00:20:17;18.02;;;12.82;;
80961;SDS011;70424;55.154;14.722;2024-02-23T00:22:43;20.15;;;12.52;;
80961;SDS011;70424;55.154;14.722;2024-02-23T00:25:08;17.55;;;12.73;;
80961;SDS011;70424;55.154;14.722;2024-02-23T00:27:34;18.75;;;11.88;;
80961;SDS011;70424;55.154;14.722;2024-02-23T00:29:59;16.98;;;12.23;;
80961;SDS011;70424;55.154;14.722;2024-02-23T00:32:25;19.73;;;12.75;;
80961;SDS011;70424;55.154;14.722;2024-02-23T00:34:50;16.13;;;11.63;;
80961;SDS011;70424;55.154;14.722;2024-02-23T00:37:16;16.48;;;11.35;;
80961;SDS011;70424;55.154;14.722;2024-02-23T00:39:41;15.43;;;11.18;;
80961;SDS011;70424;55.154;14.722;2024-02-23T00:42:06;15.40;;;10.65;;
80961;SDS011;70424;55.154;14.722;2024-02-23T00:44:32;15.18;;;10.93;;
80961;SDS011;70424;55.154;14.722;2024-02-23T00:46:58;17.70;;;11.35;;
80961;SDS011;70424;55.154;14.722;2024-02-23T00:49:26;15.98;;;11.30;;
80961;SDS011;70424;55.154;14.722;2024-02-23T00:51:52;14.23;;;10.68;;
80961;SDS011;70424;55.154;14.722;2024-02-23T00:54:17;16.63;;;10.73;;
80961;SDS011;70424;55.154;14.722;2024-02-23T00:56:42;16.15;;;10.65;;
80961;SDS011;70424;55.154;14.722;2024-02-23T00:59:08;16.27;;;11.30;;
80961;SDS011;70424;55.154;14.722;2024-02-23T01:01:33;15.88;;;11.48;;
80961;SDS011;70424;55.154;14.722;2024-02-23T01:03:59;14.43;;;10.93;;
80961;SDS011;70424;55.154;14.722;2024-02-23T01:06:24;15.45;;;11.52;;
80961;SDS011;70424;55.154;14.722;2024-02-23T01:08:50;16.02;;;11.02;;
80961;SDS011;70424;55.154;14.722;2024-02-23T01:11:15;15.88;;;10.50;;
80961;SDS011;70424;55.154;14.722;2024-02-23T01:13:41;15.30;;;10.38;;
80961;SDS011;70424;55.154;14.722;2024-02-23T01:16:06;15.77;;;10.80;;
80961;SDS011;70424;55.154;14.722;2024-02-23T01:18:33;15.20;;;10.93;;
80961;SDS011;70424;55.154;14.722;2024-02-23T01:20:58;15.27;;;10.85;;
80961;SDS011;70424;55.154;14.722;2024-02-23T01:23:24;16.95;;;11.57;;
80961;SDS011;70424;55.154;14.722;2024-02-23T01:25:49;15.82;;;10.43;;
80961;SDS011;70424;55.154;14.722;2024-02-23T01:28:15;15.90;;;10.82;;
80961;SDS011;70424;55.154;14.722;2024-02-23T01:30:40;16.05;;;11.30;;
80961;SDS011;70424;55.154;14.722;2024-02-23T01:33:05;15.23;;;10.80;;
80961;SDS011;70424;55.154;14.722;2024-02-23T01:35:31;15.15;;;11.10;;
80961;SDS011;70424;55.154;14.722;2024-02-23T01:37:56;15.52;;;10.45;;
80961;SDS011;70424;55.154;14.722;2024-02-23T01:40:22;14.13;;;10.15;;
80961;SDS011;70424;55.154;14.722;2024-02-23T01:42:47;15.05;;;10.40;;
80961;SDS011;70424;55.154;14.722;2024-02-23T01:45:13;12.73;;;9.27;;
80961;SDS011;70424;55.154;14.722;2024-02-23T01:47:38;13.98;;;9.27;;
80961;SDS011;70424;55.154;14.722;2024-02-23T01:50:04;13.98;;;9.07;;
80961;SDS011;70424;55.154;14.722;2024-02-23T01:52:30;14.20;;;9.45;;
80961;SDS011;70424;55.154;14.722;2024-02-23T01:54:56;13.55;;;8.82;;
80961;SDS011;70424;55.154;14.722;2024-02-23T01:57:21;12.95;;;9.57;;
80961;SDS011;70424;55.154;14.722;2024-02-23T01:59:48;14.20;;;9.82;;
80961;SDS011;70424;55.154;14.722;2024-02-23T02:02:15;13.20;;;8.93;;
80961;SDS011;70424;55.154;14.722;2024-02-23T02:04:41;13.00;;;9.25;;
80961;SDS011;70424;55.154;14.722;2024-02-23T02:07:06;13.85;;;9.18;;
80961;SDS011;70424;55.154;14.722;2024-02-23T02:09:32;12.80;;;8.10;;
80961;SDS011;70424;55.154;14.722;2024-02-23T02:11:57;12.05;;;8.25;;
80961;SDS011;70424;55.154;14.722;2024-02-23T02:14:23;12.98;;;7.95;;
80961;SDS011;70424;55.154;14.722;2024-02-23T02:16:48;12.27;;;7.75;;
80961;SDS011;70424;55.154;14.722;2024-02-23T02:19:13;12.82;;;7.55;;
80961;SDS011;70424;55.154;14.722;2024-02-23T02:21:41;13.13;;;7.82;;
80961;SDS011;70424;55.154;14.722;2024-02-23T02:24:06;13.77;;;7.88;;
80961;SDS011;70424;55.154;14.722;2024-02-23T02:26:32;10.60;;;6.68;;
80961;SDS011;70424;55.154;14.722;2024-02-23T02:28:59;10.10;;;6.77;;
80961;SDS011;70424;55.154;14.722;2024-02-23T02:31:25;10.85;;;6.45;;
80961;SDS011;70424;55.154;14.722;2024-02-23T02:33:50;10.60;;;6.68;;
80961;SDS011;70424;55.154;14.722;2024-02-23T02:36:15;12.00;;;6.47;;
80961;SDS011;70424;55.154;14.722;2024-02-23T02:38:41;12.10;;;6.57;;
80961;SDS011;70424;55.154;14.722;2024-02-23T02:41:06;11.18;;;6.60;;
80961;SDS011;70424;55.154;14.722;2024-02-23T02:43:32;10.77;;;6.20;;
80961;SDS011;70424;55.154;14.722;2024-02-23T02:45:57;10.07;;;6.32;;
80961;SDS011;70424;55.154;14.722;2024-02-23T02:48:23;10.65;;;6.15;;
80961;SDS011;70424;55.154;14.722;2024-02-23T02:50:49;10.40;;;5.65;;
80961;SDS011;70424;55.154;14.722;2024-02-23T02:53:16;7.82;;;5.25;;
80961;SDS011;70424;55.154;14.722;2024-02-23T02:55:42;9.52;;;4.57;;
80961;SDS011;70424;55.154;14.722;2024-02-23T02:58:08;7.20;;;4.55;;
80961;SDS011;70424;55.154;14.722;2024-02-23T03:00:33;8.23;;;4.50;;
80961;SDS011;70424;55.154;14.722;2024-02-23T03:02:59;7.18;;;4.10;;
80961;SDS011;70424;55.154;14.722;2024-02-23T03:05:24;7.65;;;4.05;;
80961;SDS011;70424;55.154;14.722;2024-02-23T03:07:50;7.22;;;4.00;;
80961;SDS011;70424;55.154;14.722;2024-02-23T03:10:16;5.72;;;3.60;;
80961;SDS011;70424;55.154;14.722;2024-02-23T03:12:41;7.35;;;3.90;;
80961;SDS011;70424;55.154;14.722;2024-02-23T03:15:07;5.70;;;3.10;;
80961;SDS011;70424;55.154;14.722;2024-02-23T03:17:33;7.05;;;3.42;;
80961;SDS011;70424;55.154;14.722;2024-02-23T03:19:59;6.72;;;2.95;;
80961;SDS011;70424;55.154;14.722;2024-02-23T03:22:24;4.63;;;2.38;;
80961;SDS011;70424;55.154;14.722;2024-02-23T03:24:50;4.07;;;2.47;;
80961;SDS011;70424;55.154;14.722;2024-02-23T03:27:15;4.53;;;2.33;;
80961;SDS011;70424;55.154;14.722;2024-02-23T03:29:41;5.45;;;2.35;;
80961;SDS011;70424;55.154;14.722;2024-02-23T03:32:07;4.30;;;2.10;;
80961;SDS011;70424;55.154;14.722;2024-02-23T03:34:32;3.97;;;1.90;;
80961;SDS011;70424;55.154;14.722;2024-02-23T03:36:58;4.32;;;1.88;;
80961;SDS011;70424;55.154;14.722;2024-02-23T03:39:23;4.00;;;2.13;;
80961;SDS011;70424;55.154;14.722;2024-02-23T03:41:49;5.60;;;2.20;;
80961;SDS011;70424;55.154;14.722;2024-02-23T03:44:14;4.32;;;1.85;;
80961;SDS011;70424;55.154;14.722;2024-02-23T03:46:40;3.33;;;1.67;;
80961;SDS011;70424;55.154;14.722;2024-02-23T03:49:05;2.60;;;1.52;;
80961;SDS011;70424;55.154;14.722;2024-02-23T03:51:31;4.57;;;1.67;;
80961;SDS011;70424;55.154;14.722;2024-02-23T03:53:57;3.05;;;1.42;;
80961;SDS011;70424;55.154;14.722;2024-02-23T03:56:23;3.53;;;1.70;;
80961;SDS011;70424;55.154;14.722;2024-02-23T03:58:48;2.78;;;1.63;;
80961;SDS011;70424;55.154;14.722;2024-02-23T04:01:14;4.53;;;1.67;;
80961;SDS011;70424;55.154;14.722;2024-02-23T04:03:39;1.50;;;1.23;;
80961;SDS011;70424;55.154;14.722;2024-02-23T04:06:05;2.45;;;1.35;;
80961;SDS011;70424;55.154;14.722;2024-02-23T04:08:31;1.30;;;1.20;;
80961;SDS011;70424;55.154;14.722;2024-02-23T04:10:57;4.72;;;1.75;;
80961;SDS011;70424;55.154;14.722;2024-02-23T04:13:22;2.67;;;1.65;;
80961;SDS011;70424;55.154;14.722;2024-02-23T04:15:48;3.30;;;1.50;;
80961;SDS011;70424;55.154;14.722;2024-02-23T04:18:13;3.00;;;1.33;;
80961;SDS011;70424;55.154;14.722;2024-02-23T04:20:39;5.32;;;1.50;;
80961;SDS011;70424;55.154;14.722;2024-02-23T04:23:04;3.05;;;1.50;;
80961;SDS011;70424;55.154;14.722;2024-02-23T04:25:29;5.47;;;1.70;;
80961;SDS011;70424;55.154;14.722;2024-02-23T04:27:55;2.83;;;1.65;;
80961;SDS011;70424;55.154;14.722;2024-02-23T04:30:21;2.58;;;1.42;;
80961;SDS011;70424;55.154;14.722;2024-02-23T04:32:47;4.82;;;1.45;;
80961;SDS011;70424;55.154;14.722;2024-02-23T04:35:13;4.78;;;1.60;;
80961;SDS011;70424;55.154;14.722;2024-02-23T04:37:39;4.63;;;1.50;;
80961;SDS011;70424;55.154;14.722;2024-02-23T04:40:05;6.68;;;1.58;;
80961;SDS011;70424;55.154;14.722;2024-02-23T04:42:31;5.07;;;2.05;;
80961;SDS011;70424;55.154;14.722;2024-02-23T04:44:56;4.35;;;1.70;;
80961;SDS011;70424;55.154;14.722;2024-02-23T04:47:22;4.47;;;1.70;;
80961;SDS011;70424;55.154;14.722;2024-02-23T04:49:47;4.60;;;1.77;;
80961;SDS011;70424;55.154;14.722;2024-02-23T04:52:12;4.80;;;1.92;;
80961;SDS011;70424;55.154;14.722;2024-02-23T04:54:38;3.53;;;1.70;;
80961;SDS011;70424;55.154;14.722;2024-02-23T04:57:04;4.63;;;1.90;;
80961;SDS011;70424;55.154;14.722;2024-02-23T04:59:29;3.95;;;1.70;;
80961;SDS011;70424;55.154;14.722;2024-02-23T05:04:22;5.07;;;2.13;;
80961;SDS011;70424;55.154;14.722;2024-02-23T05:06:48;4.50;;;1.90;;
80961;SDS011;70424;55.154;14.722;2024-02-23T05:09:13;6.13;;;1.83;;
80961;SDS011;70424;55.154;14.722;2024-02-23T05:11:39;4.93;;;1.75;;
80961;SDS011;70424;55.154;14.722;2024-02-23T05:14:04;3.95;;;1.75;;
80961;SDS011;70424;55.154;14.722;2024-02-23T05:16:30;3.13;;;1.60;;
80961;SDS011;70424;55.154;14.722;2024-02-23T05:18:56;6.40;;;2.05;;
80961;SDS011;70424;55.154;14.722;2024-02-23T05:21:21;4.35;;;1.30;;
80961;SDS011;70424;55.154;14.722;2024-02-23T05:23:47;2.17;;;1.35;;
80961;SDS011;70424;55.154;14.722;2024-02-23T05:26:12;6.20;;;3.78;;
80961;SDS011;70424;55.154;14.722;2024-02-23T05:28:38;32.97;;;22.17;;
80961;SDS011;70424;55.154;14.722;2024-02-23T05:31:03;145.18;;;91.90;;
80961;SDS011;70424;55.154;14.722;2024-02-23T05:33:29;69.20;;;45.20;;
80961;SDS011;70424;55.154;14.722;2024-02-23T05:35:55;77.88;;;53.65;;
80961;SDS011;70424;55.154;14.722;2024-02-23T05:38:20;23.08;;;18.42;;
80961;SDS011;70424;55.154;14.722;2024-02-23T05:40:46;6.68;;;4.55;;
80961;SDS011;70424;55.154;14.722;2024-02-23T05:43:13;9.52;;;8.23;;
80961;SDS011;70424;55.154;14.722;2024-02-23T05:45:39;10.43;;;9.55;;
80961;SDS011;70424;55.154;14.722;2024-02-23T05:48:04;7.78;;;4.65;;
80961;SDS011;70424;55.154;14.722;2024-02-23T05:50:30;7.10;;;6.43;;
80961;SDS011;70424;55.154;14.722;2024-02-23T05:52:57;8.25;;;7.43;;
80961;SDS011;70424;55.154;14.722;2024-02-23T05:55:23;9.63;;;8.13;;
80961;SDS011;70424;55.154;14.722;2024-02-23T05:57:49;10.18;;;7.63;;
80961;SDS011;70424;55.154;14.722;2024-02-23T06:00:15;5.38;;;3.05;;
80961;SDS011;70424;55.154;14.722;2024-02-23T06:02:44;7.53;;;5.00;;
80961;SDS011;70424;55.154;14.722;2024-02-23T06:05:10;2.13;;;1.80;;
80961;SDS011;70424;55.154;14.722;2024-02-23T06:07:36;4.32;;;0.90;;
80961;SDS011;70424;55.154;14.722;2024-02-23T06:10:01;2.17;;;0.77;;
80961;SDS011;70424;55.154;14.722;2024-02-23T06:12:27;0.93;;;0.52;;
80961;SDS011;70424;55.154;14.722;2024-02-23T06:14:52;2.15;;;0.50;;
80961;SDS011;70424;55.154;14.722;2024-02-23T06:17:20;2.92;;;0.63;;
80961;SDS011;70424;55.154;14.722;2024-02-23T06:19:45;1.38;;;0.82;;
80961;SDS011;70424;55.154;14.722;2024-02-23T06:22:11;2.47;;;0.50;;
80961;SDS011;70424;55.154;14.722;2024-02-23T06:24:38;1.90;;;0.70;;
80961;SDS011;70424;55.154;14.722;2024-02-23T06:27:04;2.10;;;1.02;;
80961;SDS011;70424;55.154;14.722;2024-02-23T06:29:29;3.17;;;0.65;;
80961;SDS011;70424;55.154;14.722;2024-02-23T06:31:55;3.00;;;0.73;;
80961;SDS011;70424;55.154;14.722;2024-02-23T06:34:21;3.75;;;0.82;;
80961;SDS011;70424;55.154;14.722;2024-02-23T06:36:46;3.03;;;0.77;;
80961;SDS011;70424;55.154;14.722;2024-02-23T06:39:12;2.15;;;0.60;;
80961;SDS011;70424;55.154;14.722;2024-02-23T06:41:43;2.33;;;0.68;;
80961;SDS011;70424;55.154;14.722;2024-02-23T06:44:08;5.97;;;0.75;;
80961;SDS011;70424;55.154;14.722;2024-02-23T06:46:34;1.25;;;0.45;;
80961;SDS011;70424;55.154;14.722;2024-02-23T06:48:59;3.45;;;0.65;;
80961;SDS011;70424;55.154;14.722;2024-02-23T06:51:25;4.35;;;0.77;;
80961;SDS011;70424;55.154;14.722;2024-02-23T06:53:50;4.78;;;0.70;;
80961;SDS011;70424;55.154;14.722;2024-02-23T06:56:15;2.70;;;0.82;;
80961;SDS011;70424;55.154;14.722;2024-02-23T06:58:44;3.45;;;0.73;;
80961;SDS011;70424;55.154;14.722;2024-02-23T07:01:09;4.45;;;0.65;;
80961;SDS011;70424;55.154;14.722;2024-02-23T07:03:37;1.83;;;0.68;;
80961;SDS011;70424;55.154;14.722;2024-02-23T07:06:04;3.92;;;0.80;;
80961;SDS011;70424;55.154;14.722;2024-02-23T07:08:29;4.57;;;0.82;;
80961;SDS011;70424;55.154;14.722;2024-02-23T07:10:55;3.83;;;0.90;;
80961;SDS011;70424;55.154;14.722;2024-02-23T07:13:20;3.45;;;0.90;;
80961;SDS011;70424;55.154;14.722;2024-02-23T07:15:45;3.38;;;0.77;;
80961;SDS011;70424;55.154;14.722;2024-02-23T07:18:11;3.05;;;0.50;;
80961;SDS011;70424;55.154;14.722;2024-02-23T07:20:36;3.13;;;0.60;;
80961;SDS011;70424;55.154;14.722;2024-02-23T07:23:02;2.22;;;0.57;;
80961;SDS011;70424;55.154;14.722;2024-02-23T07:25:27;3.92;;;0.80;;
80961;SDS011;70424;55.154;14.722;2024-02-23T07:27:53;2.92;;;0.60;;
80961;SDS011;70424;55.154;14.722;2024-02-23T07:30:18;2.78;;;0.90;;
80961;SDS011;70424;55.154;14.722;2024-02-23T07:32:44;1.80;;;0.52;;
80961;SDS011;70424;55.154;14.722;2024-02-23T07:35:11;2.03;;;0.73;;
80961;SDS011;70424;55.154;14.722;2024-02-23T07:37:37;1.73;;;0.80;;
80961;SDS011;70424;55.154;14.722;2024-02-23T07:40:02;4.05;;;0.70;;
80961;SDS011;70424;55.154;14.722;2024-02-23T07:42:29;1.95;;;0.60;;
80961;SDS011;70424;55.154;14.722;2024-02-23T07:44:55;4.97;;;0.70;;
80961;SDS011;70424;55.154;14.722;2024-02-23T07:47:21;3.97;;;0.90;;
80961;SDS011;70424;55.154;14.722;2024-02-23T07:49:46;14.45;;;7.85;;
80961;SDS011;70424;55.154;14.722;2024-02-23T07:52:12;6.03;;;2.78;;
80961;SDS011;70424;55.154;14.722;2024-02-23T07:54:37;19.65;;;9.40;;
80961;SDS011;70424;55.154;14.722;2024-02-23T07:57:03;12.13;;;6.28;;
80961;SDS011;70424;55.154;14.722;2024-02-23T07:59:30;53.97;;;29.23;;
80961;SDS011;70424;55.154;14.722;2024-02-23T08:01:55;3.28;;;1.33;;
80961;SDS011;70424;55.154;14.722;2024-02-23T08:04:21;2.20;;;1.27;;
80961;SDS011;70424;55.154;14.722;2024-02-23T08:06:46;2.75;;;0.68;;
80961;SDS011;70424;55.154;14.722;2024-02-23T08:09:11;2.85;;;0.90;;
80961;SDS011;70424;55.154;14.722;2024-02-23T08:11:37;2.28;;;1.00;;
80961;SDS011;70424;55.154;14.722;2024-02-23T08:14:02;5.32;;;1.45;;
80961;SDS011;70424;55.154;14.722;2024-02-23T08:16:28;3.88;;;1.10;;
80961;SDS011;70424;55.154;14.722;2024-02-23T08:18:53;2.67;;;0.95;;
80961;SDS011;70424;55.154;14.722;2024-02-23T08:21:19;7.38;;;1.45;;
80961;SDS011;70424;55.154;14.722;2024-02-23T08:23:45;3.95;;;1.40;;
80961;SDS011;70424;55.154;14.722;2024-02-23T08:26:10;2.63;;;1.17;;
80961;SDS011;70424;55.154;14.722;2024-02-23T08:28:36;4.00;;;1.40;;
80961;SDS011;70424;55.154;14.722;2024-02-23T08:31:01;2.85;;;1.20;;
80961;SDS011;70424;55.154;14.722;2024-02-23T08:33:26;2.53;;;0.80;;
80961;SDS011;70424;55.154;14.722;2024-02-23T08:35:52;2.30;;;1.13;;
80961;SDS011;70424;55.154;14.722;2024-02-23T08:38:17;3.03;;;1.30;;
80961;SDS011;70424;55.154;14.722;2024-02-23T08:40:43;3.10;;;1.00;;
80961;SDS011;70424;55.154;14.722;2024-02-23T08:43:10;3.33;;;1.20;;
80961;SDS011;70424;55.154;14.722;2024-02-23T08:45:35;4.25;;;1.17;;
80961;SDS011;70424;55.154;14.722;2024-02-23T08:48:01;5.13;;;2.00;;
80961;SDS011;70424;55.154;14.722;2024-02-23T08:50:26;2.00;;;1.08;;
80961;SDS011;70424;55.154;14.722;2024-02-23T08:52:52;2.92;;;1.00;;
80961;SDS011;70424;55.154;14.722;2024-02-23T08:55:17;3.08;;;1.05;;
80961;SDS011;70424;55.154;14.722;2024-02-23T08:57:43;3.30;;;1.38;;
80961;SDS011;70424;55.154;14.722;2024-02-23T09:00:09;4.05;;;1.40;;
80961;SDS011;70424;55.154;14.722;2024-02-23T09:02:35;5.35;;;1.17;;
80961;SDS011;70424;55.154;14.722;2024-02-23T09:05:03;5.25;;;1.45;;
80961;SDS011;70424;55.154;14.722;2024-02-23T09:07:29;3.53;;;1.10;;
80961;SDS011;70424;55.154;14.722;2024-02-23T09:09:55;4.65;;;1.35;;
80961;SDS011;70424;55.154;14.722;2024-02-23T09:12:22;3.13;;;1.30;;
80961;SDS011;70424;55.154;14.722;2024-02-23T09:14:47;2.10;;;1.02;;
80961;SDS011;70424;55.154;14.722;2024-02-23T09:17:13;5.85;;;1.42;;
80961;SDS011;70424;55.154;14.722;2024-02-23T09:19:39;8.60;;;1.75;;
80961;SDS011;70424;55.154;14.722;2024-02-23T09:22:04;5.95;;;1.60;;
80961;SDS011;70424;55.154;14.722;2024-02-23T09:24:30;5.30;;;1.42;;
80961;SDS011;70424;55.154;14.722;2024-02-23T09:26:55;3.45;;;1.52;;
80961;SDS011;70424;55.154;14.722;2024-02-23T09:29:21;3.75;;;1.35;;
80961;SDS011;70424;55.154;14.722;2024-02-23T09:31:47;4.63;;;1.38;;
80961;SDS011;70424;55.154;14.722;2024-02-23T09:34:12;4.13;;;1.20;;
80961;SDS011;70424;55.154;14.722;2024-02-23T09:36:39;4.35;;;1.10;;
80961;SDS011;70424;55.154;14.722;2024-02-23T09:39:04;6.95;;;1.45;;
80961;SDS011;70424;55.154;14.722;2024-02-23T09:41:30;4.22;;;1.40;;
80961;SDS011;70424;55.154;14.722;2024-02-23T09:43:58;6.55;;;1.52;;
80961;SDS011;70424;55.154;14.722;2024-02-23T09:46:24;5.05;;;1.20;;
80961;SDS011;70424;55.154;14.722;2024-02-23T09:48:50;3.55;;;1.40;;
80961;SDS011;70424;55.154;14.722;2024-02-23T09:51:16;5.75;;;1.55;;
80961;SDS011;70424;55.154;14.722;2024-02-23T09:53:43;2.83;;;1.00;;
80961;SDS011;70424;55.154;14.722;2024-02-23T09:56:09;4.22;;;1.00;;
80961;SDS011;70424;55.154;14.722;2024-02-23T09:58:35;7.40;;;1.58;;
80961;SDS011;70424;55.154;14.722;2024-02-23T10:01:02;4.80;;;1.35;;
80961;SDS011;70424;55.154;14.722;2024-02-23T10:03:28;4.25;;;1.10;;
80961;SDS011;70424;55.154;14.722;2024-02-23T10:05:57;3.60;;;1.17;;
80961;SDS011;70424;55.154;14.722;2024-02-23T10:08:23;7.50;;;1.70;;
80961;SDS011;70424;55.154;14.722;2024-02-23T10:10:48;4.28;;;1.13;;
80961;SDS011;70424;55.154;14.722;2024-02-23T10:13:18;3.00;;;0.82;;
80961;SDS011;70424;55.154;14.722;2024-02-23T10:15:45;5.03;;;1.05;;
80961;SDS011;70424;55.154;14.722;2024-02-23T10:18:12;4.93;;;1.55;;
80961;SDS011;70424;55.154;14.722;2024-02-23T10:20:37;4.65;;;1.00;;
80961;SDS011;70424;55.154;14.722;2024-02-23T10:23:04;4.55;;;1.20;;
80961;SDS011;70424;55.154;14.722;2024-02-23T10:25:29;3.05;;;1.00;;
80961;SDS011;70424;55.154;14.722;2024-02-23T10:27:55;5.50;;;1.23;;
80961;SDS011;70424;55.154;14.722;2024-02-23T10:30:20;3.28;;;1.15;;
80961;SDS011;70424;55.154;14.722;2024-02-23T10:32:46;5.75;;;1.65;;
80961;SDS011;70424;55.154;14.722;2024-02-23T10:35:15;4.30;;;1.20;;
80961;SDS011;70424;55.154;14.722;2024-02-23T10:37:42;3.25;;;1.25;;
80961;SDS011;70424;55.154;14.722;2024-02-23T10:40:12;3.85;;;1.08;;
80961;SDS011;70424;55.154;14.722;2024-02-23T10:42:38;3.28;;;0.90;;
80961;SDS011;70424;55.154;14.722;2024-02-23T10:45:06;5.18;;;1.10;;
80961;SDS011;70424;55.154;14.722;2024-02-23T10:47:32;4.40;;;1.42;;
80961;SDS011;70424;55.154;14.722;2024-02-23T10:50:00;4.43;;;1.27;;
80961;SDS011;70424;55.154;14.722;2024-02-23T10:52:28;8.48;;;1.83;;
80961;SDS011;70424;55.154;14.722;2024-02-23T10:54:54;5.40;;;1.55;;
80961;SDS011;70424;55.154;14.722;2024-02-23T10:57:20;5.05;;;1.42;;
80961;SDS011;70424;55.154;14.722;2024-02-23T10:59:46;4.63;;;1.40;;
80961;SDS011;70424;55.154;14.722;2024-02-23T11:02:13;6.07;;;1.65;;
80961;SDS011;70424;55.154;14.722;2024-02-23T11:04:42;6.40;;;1.48;;
80961;SDS011;70424;55.154;14.722;2024-02-23T11:07:20;5.25;;;1.35;;
80961;SDS011;70424;55.154;14.722;2024-02-23T11:09:53;4.60;;;1.20;;
80961;SDS011;70424;55.154;14.722;2024-02-23T11:12:29;5.80;;;1.40;;
80961;SDS011;70424;55.154;14.722;2024-02-23T11:14:58;6.45;;;1.63;;
80961;SDS011;70424;55.154;14.722;2024-02-23T11:17:28;5.78;;;1.50;;
80961;SDS011;70424;55.154;14.722;2024-02-23T11:19:55;5.15;;;1.52;;
80961;SDS011;70424;55.154;14.722;2024-02-23T11:22:31;4.60;;;1.10;;
80961;SDS011;70424;55.154;14.722;2024-02-23T11:25:03;4.57;;;1.35;;
80961;SDS011;70424;55.154;14.722;2024-02-23T11:27:36;4.28;;;1.10;;
80961;SDS011;70424;55.154;14.722;2024-02-23T11:30:06;5.05;;;1.50;;
80961;SDS011;70424;55.154;14.722;2024-02-23T11:32:37;5.22;;;1.17;;
80961;SDS011;70424;55.154;14.722;2024-02-23T11:35:07;6.03;;;1.92;;
80961;SDS011;70424;55.154;14.722;2024-02-23T11:37:33;2.78;;;1.65;;
80961;SDS011;70424;55.154;14.722;2024-02-23T11:40:09;4.18;;;1.60;;
80961;SDS011;70424;55.154;14.722;2024-02-23T11:42:37;3.20;;;1.10;;
80961;SDS011;70424;55.154;14.722;2024-02-23T11:45:06;6.75;;;1.48;;
80961;SDS011;70424;55.154;14.722;2024-02-23T11:47:31;3.83;;;1.35;;
80961;SDS011;70424;55.154;14.722;2024-02-23T11:49:57;4.50;;;1.30;;
80961;SDS011;70424;55.154;14.722;2024-02-23T11:52:22;4.10;;;1.52;;
80961;SDS011;70424;55.154;14.722;2024-02-23T11:54:48;4.13;;;1.50;;
80961;SDS011;70424;55.154;14.722;2024-02-23T11:57:13;5.22;;;1.67;;
80961;SDS011;70424;55.154;14.722;2024-02-23T11:59:39;5.90;;;1.70;;
80961;SDS011;70424;55.154;14.722;2024-02-23T12:02:06;3.42;;;1.42;;
80961;SDS011;70424;55.154;14.722;2024-02-23T12:04:32;6.45;;;1.98;;
80961;SDS011;70424;55.154;14.722;2024-02-23T12:06:58;6.57;;;1.50;;
80961;SDS011;70424;55.154;14.722;2024-02-23T12:09:23;5.07;;;1.33;;
80961;SDS011;70424;55.154;14.722;2024-02-23T12:11:49;8.02;;;2.40;;
80961;SDS011;70424;55.154;14.722;2024-02-23T12:14:15;7.32;;;1.90;;
80961;SDS011;70424;55.154;14.722;2024-02-23T12:16:40;5.32;;;1.77;;
80961;SDS011;70424;55.154;14.722;2024-02-23T12:19:07;6.00;;;2.28;;
80961;SDS011;70424;55.154;14.722;2024-02-23T12:21:36;8.00;;;1.70;;
80961;SDS011;70424;55.154;14.722;2024-02-23T12:24:04;4.05;;;1.67;;
80961;SDS011;70424;55.154;14.722;2024-02-23T12:26:33;4.43;;;1.60;;
80961;SDS011;70424;55.154;14.722;2024-02-23T12:29:02;4.43;;;1.42;;
80961;SDS011;70424;55.154;14.722;2024-02-23T12:31:28;4.25;;;1.48;;
80961;SDS011;70424;55.154;14.722;2024-02-23T12:33:54;4.35;;;1.50;;
80961;SDS011;70424;55.154;14.722;2024-02-23T12:38:47;6.70;;;2.00;;
80961;SDS011;70424;55.154;14.722;2024-02-23T12:41:13;4.47;;;1.35;;
80961;SDS011;70424;55.154;14.722;2024-02-23T12:43:38;3.55;;;1.20;;
80961;SDS011;70424;55.154;14.722;2024-02-23T12:46:04;7.93;;;1.88;;
80961;SDS011;70424;55.154;14.722;2024-02-23T12:48:29;4.35;;;1.17;;
80961;SDS011;70424;55.154;14.722;2024-02-23T12:50:55;4.63;;;2.20;;
80961;SDS011;70424;55.154;14.722;2024-02-23T12:53:36;5.03;;;1.60;;
80961;SDS011;70424;55.154;14.722;2024-02-23T12:56:04;6.25;;;1.50;;
80961;SDS011;70424;55.154;14.722;2024-02-23T12:58:37;4.93;;;1.45;;
80961;SDS011;70424;55.154;14.722;2024-02-23T13:01:04;5.63;;;1.70;;
80961;SDS011;70424;55.154;14.722;2024-02-23T13:03:31;6.82;;;2.03;;
80961;SDS011;70424;55.154;14.722;2024-02-23T13:05:56;3.08;;;1.52;;
80961;SDS011;70424;55.154;14.722;2024-02-23T13:08:23;10.57;;;1.65;;
80961;SDS011;70424;55.154;14.722;2024-02-23T13:10:49;4.40;;;1.27;;
80961;SDS011;70424;55.154;14.722;2024-02-23T13:13:15;4.00;;;1.67;;
80961;SDS011;70424;55.154;14.722;2024-02-23T13:15:42;3.30;;;1.42;;
80961;SDS011;70424;55.154;14.722;2024-02-23T13:18:08;4.03;;;1.60;;
80961;SDS011;70424;55.154;14.722;2024-02-23T13:20:34;5.82;;;1.50;;
80961;SDS011;70424;55.154;14.722;2024-02-23T13:22:59;7.90;;;1.90;;
80961;SDS011;70424;55.154;14.722;2024-02-23T13:25:25;4.45;;;1.73;;
80961;SDS011;70424;55.154;14.722;2024-02-23T13:27:50;6.05;;;1.52;;
80961;SDS011;70424;55.154;14.722;2024-02-23T13:30:15;6.53;;;1.70;;
80961;SDS011;70424;55.154;14.722;2024-02-23T13:32:41;5.53;;;1.58;;
80961;SDS011;70424;55.154;14.722;2024-02-23T13:35:06;5.60;;;1.70;;
80961;SDS011;70424;55.154;14.722;2024-02-23T13:37:33;4.13;;;1.47;;
80961;SDS011;70424;55.154;14.722;2024-02-23T13:39:59;4.85;;;1.45;;
80961;SDS011;70424;55.154;14.722;2024-02-23T13:42:25;5.93;;;1.52;;
80961;SDS011;70424;55.154;14.722;2024-02-23T13:44:50;9.82;;;1.95;;
80961;SDS011;70424;55.154;14.722;2024-02-23T13:47:16;4.63;;;1.70;;
80961;SDS011;70424;55.154;14.722;2024-02-23T13:49:42;4.15;;;1.90;;
80961;SDS011;70424;55.154;14.722;2024-02-23T13:52:07;5.70;;;1.95;;
80961;SDS011;70424;55.154;14.722;2024-02-23T13:54:33;5.38;;;1.83;;
80961;SDS011;70424;55.154;14.722;2024-02-23T13:56:58;7.28;;;1.70;;
80961;SDS011;70424;55.154;14.722;2024-02-23T13:59:24;7.32;;;1.88;;
80961;SDS011;70424;55.154;14.722;2024-02-23T14:01:49;4.57;;;1.48;;
80961;SDS011;70424;55.154;14.722;2024-02-23T14:04:15;5.90;;;1.70;;
80961;SDS011;70424;55.154;14.722;2024-02-23T14:06:41;3.28;;;1.45;;
80961;SDS011;70424;55.154;14.722;2024-02-23T14:09:07;5.15;;;1.52;;
80961;SDS011;70424;55.154;14.722;2024-02-23T14:11:33;6.15;;;1.65;;
80961;SDS011;70424;55.154;14.722;2024-02-23T14:13:59;6.28;;;1.73;;
80961;SDS011;70424;55.154;14.722;2024-02-23T14:16:24;2.22;;;1.15;;
80961;SDS011;70424;55.154;14.722;2024-02-23T14:18:50;4.25;;;1.77;;
80961;SDS011;70424;55.154;14.722;2024-02-23T14:21:16;2.92;;;1.70;;
80961;SDS011;70424;55.154;14.722;2024-02-23T14:23:43;4.40;;;1.50;;
80961;SDS011;70424;55.154;14.722;2024-02-23T14:26:09;2.95;;;1.25;;